Forestville, California
Current Conditions -  °F | °C
As of 12:11 AM on Sunday 26 Oct 2014 (Local Time) from KSTS Reporting Station
Haze Haze  
Wind Chill: 52°   Ceiling: Unl
Heat Index: 52°   Visibility: 2.5mi
Dew Point: 52°   Wind: 3mph
Humidity: 100%   Direction: 330°NNW
Pressure: 30.15"   Gusts: NA
Location:  38.47°N, 122.89°W
Report Text: KSTS 260711Z AUTO 33003KT 2 1/2SM BR SCT055 11/11 A3015 RMK AO2
Loading
Personal Weather Stations






























Interactive Weather Map
Tropical Storm Tracking
New forecast layout! Learn more

10-Day Weather Forecast

Advertisements
Track Severe Weather on mobile